createdAt,value
2019-02-24T00:01:40.001Z,100797.30
2019-02-24T00:04:08.072Z,100790.84
2019-02-24T00:06:36.965Z,100792.81
2019-02-24T00:09:06.470Z,100787.11
2019-02-24T00:11:35.141Z,100786.37
2019-02-24T00:14:03.796Z,100780.95
2019-02-24T00:16:32.771Z,100784.75
2019-02-24T00:19:01.664Z,100790.58
2019-02-24T00:21:31.149Z,100787.55
2019-02-24T00:23:59.812Z,100793.70
2019-02-24T00:26:28.717Z,100784.55
2019-02-24T00:28:57.408Z,100779.14
2019-02-24T00:31:26.376Z,100777.34
2019-02-24T00:33:55.300Z,100772.46
2019-02-24T00:36:24.212Z,100763.63
2019-02-24T00:38:52.881Z,100763.32
2019-02-24T00:41:21.539Z,100766.25
2019-02-24T00:43:50.464Z,100761.67
2019-02-24T00:46:19.611Z,100755.84
2019-02-24T00:48:48.272Z,100748.90
2019-02-24T00:51:17.262Z,100753.15
2019-02-24T00:53:46.175Z,100746.09
2019-02-24T00:56:14.819Z,100746.50
2019-02-24T00:58:43.529Z,100749.20
2019-02-24T01:01:12.198Z,100742.53
2019-02-24T01:03:40.864Z,100755.02
2019-02-24T01:06:09.835Z,100745.14
2019-02-24T01:08:38.576Z,100749.00
2019-02-24T01:11:07.310Z,100742.52
2019-02-24T01:13:36.236Z,100745.41
2019-02-24T01:16:04.876Z,100735.55
2019-02-24T01:18:33.548Z,100737.52
2019-02-24T01:21:02.471Z,100733.36
2019-02-24T01:23:31.618Z,100733.99
2019-02-24T01:26:00.288Z,100731.78
2019-02-24T01:28:28.974Z,100738.58
2019-02-24T01:30:57.858Z,100741.90
2019-02-24T01:33:26.529Z,100734.81
2019-02-24T01:35:55.421Z,100744.92
2019-02-24T01:38:24.093Z,100736.48
2019-02-24T01:40:52.750Z,100737.72
2019-02-24T01:43:21.463Z,100731.05
2019-02-24T01:45:50.113Z,100589.00
2019-02-24T01:48:21.896Z,100729.17
2019-02-24T01:50:50.543Z,100725.05
2019-02-24T01:53:19.456Z,100733.68
2019-02-24T01:55:48.107Z,100726.95
2019-02-24T01:58:16.820Z,100721.33
2019-02-24T02:00:45.474Z,100719.67
2019-02-24T02:03:14.160Z,100726.55
2019-02-24T02:05:42.831Z,100727.78
2019-02-24T02:08:11.992Z,100731.73
2019-02-24T02:10:40.923Z,100727.27
2019-02-24T02:13:09.585Z,100731.10
2019-02-24T02:15:38.321Z,100725.48
2019-02-24T02:18:07.026Z,100725.08
2019-02-24T02:20:35.765Z,100720.50
2019-02-24T02:23:04.551Z,100718.11
2019-02-24T02:25:33.461Z,100715.93
2019-02-24T02:28:02.128Z,100718.92
2019-02-24T02:30:30.886Z,100723.52
2019-02-24T02:32:59.800Z,100715.63
2019-02-24T02:35:28.493Z,100712.48
2019-02-24T02:37:59.757Z,100710.52
2019-02-24T02:40:28.500Z,100711.76
2019-02-24T02:42:57.404Z,100705.12
2019-02-24T02:45:26.080Z,100707.91
2019-02-24T02:47:55.234Z,100714.45
2019-02-24T02:50:23.915Z,100714.58
2019-02-24T02:52:52.587Z,100714.35
2019-02-24T02:55:21.247Z,100712.81
2019-02-24T02:57:49.906Z,100699.50
2019-02-24T03:00:35.020Z,100703.25
2019-02-24T03:03:04.113Z,100701.34
2019-02-24T03:05:32.868Z,100707.81
2019-02-24T03:08:07.400Z,100706.96
2019-02-24T03:10:36.080Z,100702.62
2019-02-24T03:13:04.839Z,100702.80
2019-02-24T03:15:33.587Z,100698.45
2019-02-24T03:18:02.236Z,100701.04
2019-02-24T03:20:31.093Z,100697.83
2019-02-24T03:22:59.774Z,100702.62
2019-02-24T03:25:28.694Z,100695.33
2019-02-24T03:27:57.406Z,100700.23
2019-02-24T03:30:26.339Z,100701.80
2019-02-24T03:32:55.493Z,100693.98
2019-02-24T03:35:26.540Z,100688.69
2019-02-24T03:37:55.457Z,100689.09
2019-02-24T03:40:24.125Z,100687.13
2019-02-24T03:42:52.787Z,100689.19
2019-02-24T03:45:21.483Z,100688.26
2019-02-24T03:47:50.645Z,100689.72
2019-02-24T03:50:19.317Z,100690.53
2019-02-24T03:52:48.046Z,100685.77
2019-02-24T03:55:16.718Z,100687.22
2019-02-24T03:57:45.624Z,100684.02
2019-02-24T04:00:14.525Z,100688.28
2019-02-24T04:02:43.206Z,100690.33
2019-02-24T04:05:12.097Z,100695.86
2019-02-24T04:07:41.014Z,100697.00
2019-02-24T04:10:09.681Z,100707.31
2019-02-24T04:12:38.430Z,100702.31
2019-02-24T04:15:07.513Z,100703.15
2019-02-24T04:17:36.200Z,100692.44
2019-02-24T04:20:05.034Z,100696.39
2019-02-24T04:22:33.947Z,100692.95
2019-02-24T04:25:02.975Z,100687.64
2019-02-24T04:27:31.655Z,100688.36
2019-02-24T04:30:00.386Z,100685.98
2019-02-24T04:32:29.060Z,100691.06
2019-02-24T04:34:57.715Z,100689.51
2019-02-24T04:37:26.400Z,100694.59
2019-02-24T04:39:55.289Z,100691.27
2019-02-24T04:42:23.970Z,100703.66
2019-02-24T04:44:52.885Z,100698.65
2019-02-24T04:47:21.562Z,100693.77
2019-02-24T04:49:50.246Z,100696.58
2019-02-24T04:52:18.958Z,100695.33
2019-02-24T04:54:47.892Z,100682.25
2019-02-24T04:57:16.829Z,100678.90
2019-02-24T04:59:45.509Z,100681.60
2019-02-24T05:02:14.172Z,100676.20
2019-02-24T05:04:42.834Z,100683.89
2019-02-24T05:07:11.522Z,100684.52
2019-02-24T05:09:40.413Z,100684.72
2019-02-24T05:12:09.327Z,100685.05
2019-02-24T05:14:37.985Z,100691.48
2019-02-24T05:17:06.753Z,100692.95
2019-02-24T05:19:35.692Z,100698.16
2019-02-24T05:22:04.355Z,100693.69
2019-02-24T05:24:33.052Z,100691.61
2019-02-24T05:27:01.762Z,100701.37
2019-02-24T05:29:30.693Z,100688.27
2019-02-24T05:31:59.429Z,100695.43
2019-02-24T05:34:28.133Z,100702.39
2019-02-24T05:36:57.116Z,100702.80
2019-02-24T05:39:25.794Z,100700.53
2019-02-24T05:41:54.436Z,100700.42
2019-02-24T05:44:23.355Z,100699.70
2019-02-24T05:46:52.595Z,100698.24
2019-02-24T05:49:30.334Z,100700.52
2019-02-24T05:52:04.284Z,100711.11
2019-02-24T05:54:33.000Z,100709.05
2019-02-24T05:57:01.907Z,100717.78
2019-02-24T05:59:30.586Z,100719.75
2019-02-24T06:01:59.257Z,100718.19
2019-02-24T06:04:36.418Z,100717.45
2019-02-24T06:07:08.275Z,100719.44
2019-02-24T06:09:58.188Z,100717.45
2019-02-24T06:12:28.201Z,100720.48
2019-02-24T06:14:57.097Z,100722.34
2019-02-24T06:17:26.040Z,100719.42
2019-02-24T06:19:54.708Z,100720.16
2019-02-24T06:22:23.683Z,100719.42
2019-02-24T06:24:52.609Z,100722.56
2019-02-24T06:27:23.031Z,100726.18
2019-02-24T06:29:51.942Z,100735.23
2019-02-24T06:32:20.858Z,100736.08
2019-02-24T06:34:49.789Z,100741.05
2019-02-24T06:37:18.441Z,100741.88
2019-02-24T06:39:47.871Z,100735.42
2019-02-24T06:42:16.794Z,100745.42
2019-02-24T06:44:45.730Z,100738.99
2019-02-24T06:47:14.382Z,100741.38
2019-02-24T06:49:43.298Z,100751.66
2019-02-24T06:52:11.971Z,100750.53
2019-02-24T06:54:40.656Z,100748.48
2019-02-24T06:57:09.562Z,100746.91
2019-02-24T06:59:38.475Z,100744.83
2019-02-24T07:02:07.368Z,100748.80
2019-02-24T07:04:36.355Z,100753.66
2019-02-24T07:07:05.033Z,100755.03
2019-02-24T07:09:33.953Z,100759.20
2019-02-24T07:12:02.898Z,100760.24
2019-02-24T07:14:31.563Z,100750.05
2019-02-24T07:17:00.490Z,100743.06
2019-02-24T07:19:29.933Z,100742.36
2019-02-24T07:21:58.841Z,100742.77
2019-02-24T07:24:27.793Z,100749.20
2019-02-24T07:26:56.454Z,100745.16
2019-02-24T07:29:25.372Z,100751.50
2019-02-24T07:31:54.013Z,100750.89
2019-02-24T07:34:22.939Z,100745.44
2019-02-24T07:36:51.847Z,100737.33
2019-02-24T07:39:20.745Z,100731.17
2019-02-24T07:41:49.650Z,100733.95
2019-02-24T07:44:20.429Z,100736.20
2019-02-24T07:46:49.329Z,100737.37
2019-02-24T07:49:18.005Z,100741.39
2019-02-24T07:51:46.901Z,100741.49
2019-02-24T07:54:15.837Z,100731.13
2019-02-24T07:56:44.760Z,100728.37
2019-02-24T07:59:13.440Z,100725.75
2019-02-24T08:01:42.663Z,100719.34
2019-02-24T08:04:11.873Z,100712.75
2019-02-24T08:06:40.538Z,100715.39
2019-02-24T08:09:09.351Z,100722.92
2019-02-24T08:11:38.012Z,100724.86
2019-02-24T08:14:06.771Z,100725.50
2019-02-24T08:16:35.438Z,100725.77
2019-02-24T08:19:04.125Z,100721.78
2019-02-24T08:21:32.801Z,100715.17
2019-02-24T08:24:01.486Z,100724.39
2019-02-24T08:26:30.491Z,100726.98
2019-02-24T08:28:59.242Z,100724.97
2019-02-24T08:31:28.184Z,100727.64
2019-02-24T08:33:56.857Z,100725.09
2019-02-24T08:36:25.792Z,100729.80
2019-02-24T08:38:54.564Z,100737.66
2019-02-24T08:41:23.568Z,100738.58
2019-02-24T08:43:52.224Z,100734.66
2019-02-24T08:46:21.225Z,100739.95
2019-02-24T08:48:49.924Z,100740.11
2019-02-24T08:51:18.848Z,100738.42
2019-02-24T08:53:48.007Z,100749.13
2019-02-24T08:56:16.725Z,100746.42
2019-02-24T08:58:45.627Z,100755.38
2019-02-24T09:01:14.472Z,100765.78
2019-02-24T09:03:43.145Z,100761.55
2019-02-24T09:06:12.064Z,100766.16
2019-02-24T09:08:40.821Z,100759.34
2019-02-24T09:11:09.574Z,100763.52
2019-02-24T09:13:38.244Z,100771.09
2019-02-24T09:16:06.915Z,100776.66
2019-02-24T09:18:35.579Z,100773.75
2019-02-24T09:21:04.580Z,100770.36
2019-02-24T09:23:33.305Z,100772.83
2019-02-24T09:26:01.981Z,100779.11
2019-02-24T09:28:30.672Z,100780.14
2019-02-24T09:31:00.984Z,100782.13
2019-02-24T09:33:29.885Z,100793.25
2019-02-24T09:35:58.570Z,100792.67
2019-02-24T09:38:27.475Z,100793.84
2019-02-24T09:40:56.435Z,100797.29
2019-02-24T09:43:25.179Z,100793.95
2019-02-24T09:45:55.219Z,100788.97
2019-02-24T09:48:25.334Z,100783.02
2019-02-24T09:50:54.015Z,100780.79
2019-02-24T09:53:22.914Z,100779.55
2019-02-24T09:55:51.836Z,100771.59
2019-02-24T09:58:20.498Z,100780.44
2019-02-24T10:00:49.186Z,100774.24
2019-02-24T10:03:17.945Z,100770.23
2019-02-24T10:05:46.613Z,100766.83
2019-02-24T10:08:15.303Z,100768.23
2019-02-24T10:10:46.344Z,100767.52
2019-02-24T10:13:15.096Z,100772.80
2019-02-24T10:15:44.265Z,100768.15
2019-02-24T10:18:13.216Z,100780.03
2019-02-24T10:20:42.208Z,100771.75
2019-02-24T10:23:10.867Z,100773.95
2019-02-24T10:25:39.880Z,100781.89
2019-02-24T10:28:08.558Z,100774.71
2019-02-24T10:30:38.006Z,100772.65
2019-02-24T10:33:06.782Z,100774.28
2019-02-24T10:35:36.278Z,100773.05
2019-02-24T10:38:05.020Z,100773.02
2019-02-24T10:40:33.946Z,100772.84
2019-02-24T10:43:02.702Z,100767.88
2019-02-24T10:45:31.604Z,100765.37
2019-02-24T10:48:00.296Z,100770.89
2019-02-24T10:50:29.202Z,100761.12
2019-02-24T10:52:58.752Z,100754.42
2019-02-24T10:55:27.743Z,100750.45
2019-02-24T10:57:56.421Z,100755.47
2019-02-24T11:00:25.273Z,100746.48
2019-02-24T11:02:54.282Z,100747.62
2019-02-24T11:05:23.560Z,100748.77
2019-02-24T11:07:52.755Z,100741.37
2019-02-24T11:10:23.607Z,100744.14
2019-02-24T11:12:53.151Z,100750.48
2019-02-24T11:15:24.261Z,100749.44
2019-02-24T11:17:52.958Z,100749.13
2019-02-24T11:20:21.854Z,100746.36
2019-02-24T11:22:50.773Z,100742.61
2019-02-24T11:25:19.514Z,100745.12
2019-02-24T11:27:48.815Z,100749.23
2019-02-24T11:30:17.723Z,100746.50
2019-02-24T11:32:46.666Z,100739.09
2019-02-24T11:35:15.366Z,100728.66
2019-02-24T11:37:44.086Z,100733.09
2019-02-24T11:40:12.753Z,100739.17
2019-02-24T11:42:41.427Z,100728.51
2019-02-24T11:45:10.450Z,100730.39
2019-02-24T11:47:39.723Z,100730.12
2019-02-24T11:50:11.186Z,100729.84
2019-02-24T11:52:40.267Z,100727.64
2019-02-24T11:55:09.151Z,100728.29
2019-02-24T11:57:38.158Z,100727.67
2019-02-24T12:00:07.129Z,100716.22
2019-02-24T12:02:36.026Z,100716.53
2019-02-24T12:05:05.260Z,100712.95
2019-02-24T12:07:34.154Z,100721.48
2019-02-24T12:10:02.819Z,100730.56
2019-02-24T12:12:31.742Z,100734.43
2019-02-24T12:15:00.720Z,100734.73
2019-02-24T12:17:29.667Z,100737.20
2019-02-24T12:19:58.327Z,100736.11
2019-02-24T12:22:26.971Z,100744.89
2019-02-24T12:24:55.894Z,100741.07
2019-02-24T12:27:24.584Z,100744.65
2019-02-24T12:29:53.250Z,100741.32
2019-02-24T12:32:21.943Z,100721.83
2019-02-24T12:34:50.897Z,100750.95
2019-02-24T12:37:19.823Z,100749.86
2019-02-24T12:39:48.718Z,100739.38
2019-02-24T12:42:17.867Z,100740.73
2019-02-24T12:44:46.804Z,100746.00
2019-02-24T12:47:15.483Z,100740.48
2019-02-24T12:49:44.417Z,100737.72
2019-02-24T12:52:13.302Z,100733.86
2019-02-24T12:54:41.963Z,100727.50
2019-02-24T12:57:11.031Z,100718.33
2019-02-24T12:59:39.925Z,100716.70
2019-02-24T13:02:08.894Z,100711.19
2019-02-24T13:04:37.819Z,100710.58
2019-02-24T13:07:06.507Z,100722.11
2019-02-24T13:09:35.414Z,100719.02
2019-02-24T13:12:04.257Z,100714.63
2019-02-24T13:14:32.926Z,100709.22
2019-02-24T13:17:01.595Z,100714.06
2019-02-24T13:19:30.563Z,100714.58
2019-02-24T13:21:59.465Z,100717.58
2019-02-24T13:24:28.119Z,100713.11
2019-02-24T13:26:56.799Z,100703.95
2019-02-24T13:29:25.483Z,100707.53
2019-02-24T13:31:54.161Z,100719.35
2019-02-24T13:34:22.852Z,100711.03
2019-02-24T13:36:51.844Z,100714.89
2019-02-24T13:39:20.824Z,100714.36
2019-02-24T13:41:49.503Z,100720.01
2019-02-24T13:44:18.185Z,100716.69
2019-02-24T13:46:46.846Z,100713.36
2019-02-24T13:49:15.605Z,100712.50
2019-02-24T13:51:44.543Z,100711.63
2019-02-24T13:54:16.635Z,100705.69
2019-02-24T13:56:45.519Z,100708.98
2019-02-24T13:59:14.355Z,100705.26
2019-02-24T14:01:48.156Z,100709.14
2019-02-24T14:04:17.083Z,100700.91
2019-02-24T14:06:47.292Z,100703.09
2019-02-24T14:09:16.381Z,100701.63
2019-02-24T14:11:45.403Z,100701.72
2019-02-24T14:14:14.085Z,100698.43
2019-02-24T14:16:42.745Z,100703.14
2019-02-24T14:19:11.458Z,100699.28
2019-02-24T14:21:50.838Z,100700.33
2019-02-24T14:24:13.211Z,100696.69
2019-02-24T14:26:41.917Z,100706.32
2019-02-24T14:29:10.602Z,100705.27
2019-02-24T14:31:39.380Z,100701.08
2019-02-24T14:34:11.164Z,100703.84
2019-02-24T14:36:42.513Z,100699.75
2019-02-24T14:39:11.978Z,100697.77
2019-02-24T14:41:40.663Z,100702.98
2019-02-24T14:44:09.398Z,100693.59
2019-02-24T14:46:38.317Z,100694.81
2019-02-24T14:49:07.082Z,100694.45
2019-02-24T14:51:35.760Z,100698.57
2019-02-24T14:54:04.728Z,100696.08
2019-02-24T14:56:36.992Z,100695.61
2019-02-24T14:59:07.051Z,100621.09
2019-02-24T15:01:36.591Z,100697.67
2019-02-24T15:04:05.936Z,100695.72
2019-02-24T15:06:35.349Z,100687.25
2019-02-24T15:09:04.830Z,100688.15
2019-02-24T15:11:34.108Z,100687.70
2019-02-24T15:14:02.770Z,100685.84
2019-02-24T15:16:32.335Z,100685.08
2019-02-24T15:19:00.984Z,100689.62
2019-02-24T15:21:30.100Z,100700.05
2019-02-24T15:23:59.161Z,100699.26
2019-02-24T15:26:29.633Z,100696.75
2019-02-24T15:28:58.358Z,100695.60
2019-02-24T15:31:27.292Z,100688.81
2019-02-24T15:33:55.946Z,100689.95
2019-02-24T15:36:24.633Z,100697.63
2019-02-24T15:38:53.599Z,100700.38
2019-02-24T15:41:29.502Z,100702.11
2019-02-24T15:43:53.741Z,100697.72
2019-02-24T15:46:22.679Z,100706.27
2019-02-24T15:48:51.797Z,100709.02
2019-02-24T15:51:20.733Z,100713.19
2019-02-24T15:53:49.417Z,100705.52
2019-02-24T15:56:18.232Z,100711.30
2019-02-24T15:58:46.885Z,100709.34
2019-02-24T16:01:15.833Z,100715.37
2019-02-24T16:03:44.479Z,100711.01
2019-02-24T16:06:13.466Z,100713.40
2019-02-24T16:08:43.514Z,100715.06
2019-02-24T16:11:12.428Z,100717.21
2019-02-24T16:13:43.044Z,100718.84
2019-02-24T16:16:12.701Z,100715.81
2019-02-24T16:18:41.990Z,100714.95
2019-02-24T16:21:10.861Z,100712.45
2019-02-24T16:23:40.595Z,100705.79
2019-02-24T16:26:09.271Z,100711.54
2019-02-24T16:28:37.954Z,100712.75
2019-02-24T16:31:06.608Z,100710.98
2019-02-24T16:33:35.351Z,100716.28
2019-02-24T16:36:04.340Z,100717.15
2019-02-24T16:38:33.037Z,100719.07
2019-02-24T16:41:01.736Z,100715.99
2019-02-24T16:43:30.505Z,100717.30
2019-02-24T16:45:59.537Z,100730.64
2019-02-24T16:48:28.427Z,100730.81
2019-02-24T16:50:57.136Z,100735.37
2019-02-24T16:53:25.802Z,100733.39
2019-02-24T16:55:55.452Z,100739.00
2019-02-24T16:58:24.301Z,100743.61
2019-02-24T17:00:52.957Z,100744.70
2019-02-24T17:03:21.635Z,100745.70
2019-02-24T17:05:50.309Z,100745.15
2019-02-24T17:08:18.985Z,100752.21
2019-02-24T17:10:47.979Z,100748.41
2019-02-24T17:13:16.894Z,100748.97
2019-02-24T17:15:45.611Z,100740.66
2019-02-24T17:18:14.568Z,100744.42
2019-02-24T17:20:43.249Z,100738.30
2019-02-24T17:23:11.925Z,100740.69
2019-02-24T17:25:40.582Z,100739.72
2019-02-24T17:28:09.301Z,100744.77
2019-02-24T17:30:38.698Z,100744.72
2019-02-24T17:33:07.728Z,100743.22
2019-02-24T17:35:36.692Z,100744.44
2019-02-24T17:38:05.721Z,100747.27
2019-02-24T17:40:35.369Z,100751.61
2019-02-24T17:43:04.555Z,100751.61
2019-02-24T17:45:33.796Z,100753.16
2019-02-24T17:48:02.674Z,100749.59
2019-02-24T17:50:31.606Z,100756.67
2019-02-24T17:53:00.275Z,100756.30
2019-02-24T17:55:28.948Z,100754.84
2019-02-24T17:57:58.023Z,100762.41
2019-02-24T18:00:29.904Z,100757.88
2019-02-24T18:02:58.598Z,100763.21
2019-02-24T18:05:27.403Z,100766.08
2019-02-24T18:07:56.332Z,100772.66
2019-02-24T18:10:25.317Z,100760.75
2019-02-24T18:12:54.004Z,100756.15
2019-02-24T18:15:22.686Z,100765.64
2019-02-24T18:17:51.382Z,100760.83
2019-02-24T18:20:20.169Z,100766.09
2019-02-24T18:22:49.000Z,100764.88
2019-02-24T18:25:17.848Z,100768.17
2019-02-24T18:27:48.559Z,100769.05
2019-02-24T18:30:19.541Z,100769.52
2019-02-24T18:32:48.199Z,100766.13
2019-02-24T18:35:17.134Z,100765.06
2019-02-24T18:37:45.969Z,100760.00
2019-02-24T18:40:14.900Z,100768.72
2019-02-24T18:42:43.876Z,100769.61
2019-02-24T18:45:12.957Z,100758.02
2019-02-24T18:47:42.268Z,100754.07
2019-02-24T18:50:11.502Z,100751.90
2019-02-24T18:52:40.311Z,100743.52
2019-02-24T18:55:09.453Z,100746.73
2019-02-24T18:57:38.148Z,100743.74
2019-02-24T19:00:09.015Z,100748.05
2019-02-24T19:02:38.032Z,100746.83
2019-02-24T19:05:07.351Z,100752.11
2019-02-24T19:07:36.013Z,100741.67
2019-02-24T19:10:07.460Z,100744.30
2019-02-24T19:12:36.451Z,100744.83
2019-02-24T19:15:06.019Z,100745.67
2019-02-24T19:17:34.746Z,100744.09
2019-02-24T19:20:03.846Z,100741.85
2019-02-24T19:22:32.503Z,100750.72
2019-02-24T19:25:01.238Z,100747.52
2019-02-24T19:27:30.230Z,100743.50
2019-02-24T19:29:58.926Z,100747.97
2019-02-24T19:32:29.417Z,100745.98
2019-02-24T19:34:58.083Z,100740.67
2019-02-24T19:37:27.410Z,100743.05
2019-02-24T19:39:56.379Z,100741.66
2019-02-24T19:42:25.605Z,100739.11
2019-02-24T19:44:54.300Z,100743.00
2019-02-24T19:47:22.965Z,100744.03
2019-02-24T19:49:51.647Z,100736.60
2019-02-24T19:52:20.635Z,100731.98
2019-02-24T19:54:49.552Z,100735.91
2019-02-24T19:57:18.438Z,100736.38
2019-02-24T19:59:47.210Z,100727.48
2019-02-24T20:02:16.122Z,100726.84
2019-02-24T20:04:44.793Z,100733.72
2019-02-24T20:07:13.480Z,100733.02
2019-02-24T20:09:42.219Z,100731.56
2019-02-24T20:12:11.140Z,100732.02
2019-02-24T20:14:39.873Z,100731.73
2019-02-24T20:17:08.925Z,100735.14
2019-02-24T20:19:37.601Z,100737.67
2019-02-24T20:22:06.334Z,100746.41
2019-02-24T20:24:35.010Z,100748.95
2019-02-24T20:27:04.071Z,100748.47
2019-02-24T20:29:35.557Z,100757.81
2019-02-24T20:32:04.339Z,100751.02
2019-02-24T20:34:33.015Z,100752.77
2019-02-24T20:37:02.006Z,100750.03
2019-02-24T20:39:30.993Z,100759.44
2019-02-24T20:41:59.930Z,100752.37
2019-02-24T20:44:28.985Z,100759.09
2019-02-24T20:46:57.986Z,100762.39
2019-02-24T20:49:26.952Z,100761.51
2019-02-24T20:51:55.640Z,100759.56
2019-02-24T20:54:24.657Z,100754.89
2019-02-24T20:56:53.839Z,100753.28
2019-02-24T20:59:22.816Z,100759.09
2019-02-24T21:01:51.511Z,100754.23
2019-02-24T21:04:20.172Z,100760.62
2019-02-24T21:06:48.858Z,100758.27
2019-02-24T21:09:17.507Z,100759.22
2019-02-24T21:11:46.466Z,100759.66
2019-02-24T21:14:15.173Z,100760.98
2019-02-24T21:16:44.490Z,100765.66
2019-02-24T21:19:13.312Z,100762.07
2019-02-24T21:21:42.006Z,100763.05
2019-02-24T21:24:10.780Z,100765.07
2019-02-24T21:26:39.492Z,100765.95
2019-02-24T21:29:08.493Z,100695.13
2019-02-24T21:31:37.158Z,100768.11
2019-02-24T21:34:05.990Z,100780.39
2019-02-24T21:36:38.393Z,100779.42
2019-02-24T21:39:08.235Z,100779.48
2019-02-24T21:41:37.007Z,100786.44
2019-02-24T21:44:05.812Z,100783.17
2019-02-24T21:46:38.513Z,100786.81
2019-02-24T21:49:07.283Z,100781.77
2019-02-24T21:51:38.028Z,100779.70
2019-02-24T21:54:07.059Z,100781.09
2019-02-24T21:56:36.014Z,100783.70
2019-02-24T21:59:05.010Z,100783.82
2019-02-24T22:01:33.787Z,100780.63
2019-02-24T22:04:02.454Z,100777.48
2019-02-24T22:06:31.121Z,100781.88
2019-02-24T22:09:00.102Z,100779.52
2019-02-24T22:11:28.778Z,100787.45
2019-02-24T22:13:57.464Z,100787.44
2019-02-24T22:16:26.147Z,100788.16
2019-02-24T22:18:54.846Z,100786.44
2019-02-24T22:21:23.813Z,100782.30
2019-02-24T22:23:53.077Z,100790.17
2019-02-24T22:26:21.740Z,100785.08
2019-02-24T22:28:50.449Z,100787.55
2019-02-24T22:31:19.086Z,100792.06
2019-02-24T22:33:47.766Z,100793.37
2019-02-24T22:36:16.856Z,100787.09
2019-02-24T22:38:45.507Z,100786.98
2019-02-24T22:41:14.502Z,100801.55
2019-02-24T22:43:43.330Z,100797.19
2019-02-24T22:46:11.992Z,100793.25
2019-02-24T22:48:41.114Z,100801.80
2019-02-24T22:51:09.798Z,100805.23
2019-02-24T22:53:38.482Z,100816.13
2019-02-24T22:56:07.180Z,100809.02
2019-02-24T22:58:36.153Z,100801.55
2019-02-24T23:01:16.341Z,100798.46
2019-02-24T23:03:46.958Z,100797.41
2019-02-24T23:06:16.015Z,100800.24
2019-02-24T23:08:45.100Z,100792.97
2019-02-24T23:11:14.098Z,100797.16
2019-02-24T23:13:43.014Z,100795.61
2019-02-24T23:16:11.981Z,100792.16
2019-02-24T23:18:40.658Z,100795.33
2019-02-24T23:21:09.357Z,100794.87
2019-02-24T23:23:38.098Z,100794.66
2019-02-24T23:26:06.769Z,100793.30
2019-02-24T23:28:35.556Z,100796.48
2019-02-24T23:31:04.289Z,100796.94
2019-02-24T23:33:32.981Z,100791.49
2019-02-24T23:36:01.999Z,100796.22
2019-02-24T23:38:31.279Z,100800.56
2019-02-24T23:41:00.207Z,100793.91
2019-02-24T23:43:30.708Z,100797.00
2019-02-24T23:45:59.682Z,100796.42
2019-02-24T23:48:28.708Z,100795.90
2019-02-24T23:50:57.710Z,100795.33
2019-02-24T23:53:26.664Z,100790.84
2019-02-24T23:55:55.400Z,100794.60
2019-02-24T23:58:24.132Z,100797.20
